sensor_id;sensor_type;location;lat;lon;timestamp;P1;durP1;ratioP1;P2;durP2;ratioP2
57085;SDS011;42964;42.910;23.792;2023-09-18T00:02:28;75.80;;;28.88;;
57085;SDS011;42964;42.910;23.792;2023-09-18T00:07:29;105.35;;;28.73;;
57085;SDS011;42964;42.910;23.792;2023-09-18T00:12:28;78.50;;;29.45;;
57085;SDS011;42964;42.910;23.792;2023-09-18T00:17:27;78.60;;;27.40;;
57085;SDS011;42964;42.910;23.792;2023-09-18T00:22:26;45.65;;;26.27;;
57085;SDS011;42964;42.910;23.792;2023-09-18T00:27:26;60.42;;;26.30;;
57085;SDS011;42964;42.910;23.792;2023-09-18T00:32:25;56.45;;;27.00;;
57085;SDS011;42964;42.910;23.792;2023-09-18T00:37:26;71.38;;;26.92;;
57085;SDS011;42964;42.910;23.792;2023-09-18T00:42:25;115.07;;;31.73;;
57085;SDS011;42964;42.910;23.792;2023-09-18T00:52:23;72.00;;;28.87;;
57085;SDS011;42964;42.910;23.792;2023-09-18T00:57:23;77.40;;;36.08;;
57085;SDS011;42964;42.910;23.792;2023-09-18T01:02:22;73.95;;;33.90;;
57085;SDS011;42964;42.910;23.792;2023-09-18T01:07:22;71.97;;;32.70;;
57085;SDS011;42964;42.910;23.792;2023-09-18T01:17:43;74.85;;;30.08;;
57085;SDS011;42964;42.910;23.792;2023-09-18T01:22:42;69.90;;;29.23;;
57085;SDS011;42964;42.910;23.792;2023-09-18T01:27:42;70.53;;;28.27;;
57085;SDS011;42964;42.910;23.792;2023-09-18T01:32:41;106.53;;;31.77;;
57085;SDS011;42964;42.910;23.792;2023-09-18T01:37:41;72.45;;;28.00;;
57085;SDS011;42964;42.910;23.792;2023-09-18T01:42:41;135.95;;;32.75;;
57085;SDS011;42964;42.910;23.792;2023-09-18T01:47:41;78.95;;;29.05;;
57085;SDS011;42964;42.910;23.792;2023-09-18T01:52:41;97.65;;;30.73;;
57085;SDS011;42964;42.910;23.792;2023-09-18T01:57:39;133.38;;;34.40;;
57085;SDS011;42964;42.910;23.792;2023-09-18T02:02:40;89.57;;;32.50;;
57085;SDS011;42964;42.910;23.792;2023-09-18T02:07:39;85.25;;;30.77;;
57085;SDS011;42964;42.910;23.792;2023-09-18T02:12:38;79.72;;;32.58;;
57085;SDS011;42964;42.910;23.792;2023-09-18T02:17:38;67.85;;;36.47;;
57085;SDS011;42964;42.910;23.792;2023-09-18T02:22:40;66.25;;;36.35;;
57085;SDS011;42964;42.910;23.792;2023-09-18T02:27:38;58.70;;;34.72;;
57085;SDS011;42964;42.910;23.792;2023-09-18T02:32:37;76.72;;;37.00;;
57085;SDS011;42964;42.910;23.792;2023-09-18T02:37:36;79.63;;;35.80;;
57085;SDS011;42964;42.910;23.792;2023-09-18T02:42:35;66.88;;;34.60;;
57085;SDS011;42964;42.910;23.792;2023-09-18T02:52:35;62.58;;;34.97;;
57085;SDS011;42964;42.910;23.792;2023-09-18T02:57:34;65.35;;;34.33;;
57085;SDS011;42964;42.910;23.792;2023-09-18T03:02:33;116.10;;;32.90;;
57085;SDS011;42964;42.910;23.792;2023-09-18T03:12:31;83.50;;;30.47;;
57085;SDS011;42964;42.910;23.792;2023-09-18T03:22:29;80.27;;;27.83;;
57085;SDS011;42964;42.910;23.792;2023-09-18T03:32:27;106.57;;;30.35;;
57085;SDS011;42964;42.910;23.792;2023-09-18T03:42:25;137.43;;;32.45;;
57085;SDS011;42964;42.910;23.792;2023-09-18T03:47:24;86.93;;;29.02;;
57085;SDS011;42964;42.910;23.792;2023-09-18T03:52:23;116.90;;;28.95;;
57085;SDS011;42964;42.910;23.792;2023-09-18T04:02:21;81.20;;;27.50;;
57085;SDS011;42964;42.910;23.792;2023-09-18T04:07:23;98.10;;;29.17;;
57085;SDS011;42964;42.910;23.792;2023-09-18T04:12:22;120.05;;;28.98;;
57085;SDS011;42964;42.910;23.792;2023-09-18T04:22:19;63.83;;;27.33;;
57085;SDS011;42964;42.910;23.792;2023-09-18T04:32:17;96.43;;;26.85;;
57085;SDS011;42964;42.910;23.792;2023-09-18T04:42:15;73.85;;;23.30;;
57085;SDS011;42964;42.910;23.792;2023-09-18T04:52:13;72.43;;;24.03;;
57085;SDS011;42964;42.910;23.792;2023-09-18T05:02:11;99.20;;;26.20;;
57085;SDS011;42964;42.910;23.792;2023-09-18T05:07:10;161.88;;;30.52;;
57085;SDS011;42964;42.910;23.792;2023-09-18T05:12:09;209.18;;;32.05;;
57085;SDS011;42964;42.910;23.792;2023-09-18T05:17:15;176.30;;;31.02;;
57085;SDS011;42964;42.910;23.792;2023-09-18T05:22:15;154.88;;;28.85;;
57085;SDS011;42964;42.910;23.792;2023-09-18T05:27:14;105.95;;;26.30;;
57085;SDS011;42964;42.910;23.792;2023-09-18T05:32:13;98.28;;;26.55;;
57085;SDS011;42964;42.910;23.792;2023-09-18T05:37:12;94.03;;;23.25;;
57085;SDS011;42964;42.910;23.792;2023-09-18T05:42:11;63.63;;;22.33;;
57085;SDS011;42964;42.910;23.792;2023-09-18T05:47:10;96.50;;;24.95;;
57085;SDS011;42964;42.910;23.792;2023-09-18T05:52:09;52.92;;;23.15;;
57085;SDS011;42964;42.910;23.792;2023-09-18T05:57:08;52.65;;;21.13;;
57085;SDS011;42964;42.910;23.792;2023-09-18T06:02:07;35.42;;;19.15;;
57085;SDS011;42964;42.910;23.792;2023-09-18T06:12:05;38.03;;;21.20;;
57085;SDS011;42964;42.910;23.792;2023-09-18T06:17:05;38.58;;;21.83;;
57085;SDS011;42964;42.910;23.792;2023-09-18T06:22:04;36.95;;;22.08;;
57085;SDS011;42964;42.910;23.792;2023-09-18T06:27:04;31.58;;;21.33;;
57085;SDS011;42964;42.910;23.792;2023-09-18T06:32:03;32.88;;;21.67;;
57085;SDS011;42964;42.910;23.792;2023-09-18T06:37:02;29.63;;;20.00;;
57085;SDS011;42964;42.910;23.792;2023-09-18T06:42:05;25.85;;;19.92;;
57085;SDS011;42964;42.910;23.792;2023-09-18T06:47:05;27.77;;;19.02;;
57085;SDS011;42964;42.910;23.792;2023-09-18T06:52:04;24.15;;;18.73;;
57085;SDS011;42964;42.910;23.792;2023-09-18T06:57:04;23.70;;;18.15;;
57085;SDS011;42964;42.910;23.792;2023-09-18T07:02:03;24.70;;;19.08;;
57085;SDS011;42964;42.910;23.792;2023-09-18T07:07:02;23.15;;;17.92;;
57085;SDS011;42964;42.910;23.792;2023-09-18T07:12:02;19.67;;;15.30;;
57085;SDS011;42964;42.910;23.792;2023-09-18T07:17:01;21.17;;;16.83;;
57085;SDS011;42964;42.910;23.792;2023-09-18T07:22:00;21.65;;;17.65;;
57085;SDS011;42964;42.910;23.792;2023-09-18T07:27:00;19.25;;;16.88;;
57085;SDS011;42964;42.910;23.792;2023-09-18T07:31:59;19.33;;;15.13;;
57085;SDS011;42964;42.910;23.792;2023-09-18T07:37:00;23.35;;;16.23;;
57085;SDS011;42964;42.910;23.792;2023-09-18T07:41:59;16.92;;;14.32;;
57085;SDS011;42964;42.910;23.792;2023-09-18T07:46:58;21.58;;;14.98;;
57085;SDS011;42964;42.910;23.792;2023-09-18T07:51:59;18.75;;;14.75;;
57085;SDS011;42964;42.910;23.792;2023-09-18T07:56:58;21.30;;;16.80;;
57085;SDS011;42964;42.910;23.792;2023-09-18T08:01:59;19.75;;;15.65;;
57085;SDS011;42964;42.910;23.792;2023-09-18T08:06:58;22.35;;;15.40;;
57085;SDS011;42964;42.910;23.792;2023-09-18T08:11:56;23.48;;;18.05;;
57085;SDS011;42964;42.910;23.792;2023-09-18T08:16:56;21.83;;;15.90;;
57085;SDS011;42964;42.910;23.792;2023-09-18T08:21:56;23.00;;;15.82;;
57085;SDS011;42964;42.910;23.792;2023-09-18T08:26:56;21.25;;;14.95;;
57085;SDS011;42964;42.910;23.792;2023-09-18T08:31:55;20.35;;;14.02;;
57085;SDS011;42964;42.910;23.792;2023-09-18T08:36:54;17.60;;;11.60;;
57085;SDS011;42964;42.910;23.792;2023-09-18T08:41:55;18.20;;;11.23;;
57085;SDS011;42964;42.910;23.792;2023-09-18T08:46:58;13.18;;;10.60;;
57085;SDS011;42964;42.910;23.792;2023-09-18T08:51:57;12.65;;;9.50;;
57085;SDS011;42964;42.910;23.792;2023-09-18T08:56:58;14.45;;;11.27;;
57085;SDS011;42964;42.910;23.792;2023-09-18T09:01:57;11.93;;;10.02;;
57085;SDS011;42964;42.910;23.792;2023-09-18T09:06:56;12.32;;;9.30;;
57085;SDS011;42964;42.910;23.792;2023-09-18T09:11:57;9.98;;;8.57;;
57085;SDS011;42964;42.910;23.792;2023-09-18T09:16:56;13.13;;;9.55;;
57085;SDS011;42964;42.910;23.792;2023-09-18T09:21:58;15.32;;;9.80;;
57085;SDS011;42964;42.910;23.792;2023-09-18T09:26:59;15.13;;;8.82;;
57085;SDS011;42964;42.910;23.792;2023-09-18T09:32:11;14.75;;;10.05;;
57085;SDS011;42964;42.910;23.792;2023-09-18T09:37:15;12.15;;;8.60;;
57085;SDS011;42964;42.910;23.792;2023-09-18T09:42:15;11.70;;;8.73;;
57085;SDS011;42964;42.910;23.792;2023-09-18T09:47:26;13.55;;;8.35;;
57085;SDS011;42964;42.910;23.792;2023-09-18T09:52:26;12.85;;;8.13;;
57085;SDS011;42964;42.910;23.792;2023-09-18T09:57:25;9.57;;;6.88;;
57085;SDS011;42964;42.910;23.792;2023-09-18T10:02:24;9.63;;;7.20;;
57085;SDS011;42964;42.910;23.792;2023-09-18T10:07:24;13.35;;;8.90;;
57085;SDS011;42964;42.910;23.792;2023-09-18T10:12:23;14.10;;;8.55;;
57085;SDS011;42964;42.910;23.792;2023-09-18T10:17:23;11.32;;;8.00;;
57085;SDS011;42964;42.910;23.792;2023-09-18T10:27:37;10.65;;;7.50;;
57085;SDS011;42964;42.910;23.792;2023-09-18T10:32:42;9.55;;;7.88;;
57085;SDS011;42964;42.910;23.792;2023-09-18T10:37:45;8.50;;;7.60;;
57085;SDS011;42964;42.910;23.792;2023-09-18T10:42:44;13.00;;;8.32;;
57085;SDS011;42964;42.910;23.792;2023-09-18T10:47:46;10.65;;;7.28;;
57085;SDS011;42964;42.910;23.792;2023-09-18T10:52:47;11.43;;;8.10;;
57085;SDS011;42964;42.910;23.792;2023-09-18T10:57:52;11.52;;;7.78;;
57085;SDS011;42964;42.910;23.792;2023-09-18T11:02:53;12.02;;;7.75;;
57085;SDS011;42964;42.910;23.792;2023-09-18T11:13:34;10.73;;;7.57;;
57085;SDS011;42964;42.910;23.792;2023-09-18T11:18:36;12.43;;;7.15;;
57085;SDS011;42964;42.910;23.792;2023-09-18T11:23:36;10.80;;;7.55;;
57085;SDS011;42964;42.910;23.792;2023-09-18T11:28:37;9.60;;;7.10;;
57085;SDS011;42964;42.910;23.792;2023-09-18T11:33:37;11.13;;;7.53;;
57085;SDS011;42964;42.910;23.792;2023-09-18T11:39:02;8.52;;;6.30;;
57085;SDS011;42964;42.910;23.792;2023-09-18T11:49:14;12.52;;;6.97;;
57085;SDS011;42964;42.910;23.792;2023-09-18T11:54:19;11.80;;;7.20;;
57085;SDS011;42964;42.910;23.792;2023-09-18T11:59:32;11.13;;;6.88;;
57085;SDS011;42964;42.910;23.792;2023-09-18T12:04:33;11.40;;;6.82;;
57085;SDS011;42964;42.910;23.792;2023-09-18T12:09:33;8.18;;;7.00;;
57085;SDS011;42964;42.910;23.792;2023-09-18T12:14:32;11.55;;;6.95;;
57085;SDS011;42964;42.910;23.792;2023-09-18T12:19:32;12.63;;;6.55;;
57085;SDS011;42964;42.910;23.792;2023-09-18T12:24:33;10.95;;;6.97;;
57085;SDS011;42964;42.910;23.792;2023-09-18T12:29:32;10.98;;;6.75;;
57085;SDS011;42964;42.910;23.792;2023-09-18T12:34:31;11.70;;;7.40;;
57085;SDS011;42964;42.910;23.792;2023-09-18T12:39:32;10.85;;;6.55;;
57085;SDS011;42964;42.910;23.792;2023-09-18T12:44:31;9.25;;;6.70;;
57085;SDS011;42964;42.910;23.792;2023-09-18T12:49:31;8.82;;;7.18;;
57085;SDS011;42964;42.910;23.792;2023-09-18T12:59:44;9.45;;;7.05;;
57085;SDS011;42964;42.910;23.792;2023-09-18T13:04:50;8.85;;;6.13;;
57085;SDS011;42964;42.910;23.792;2023-09-18T13:15:00;9.05;;;6.63;;
57085;SDS011;42964;42.910;23.792;2023-09-18T13:20:08;8.63;;;6.05;;
57085;SDS011;42964;42.910;23.792;2023-09-18T13:25:09;8.45;;;6.22;;
57085;SDS011;42964;42.910;23.792;2023-09-18T13:30:11;10.38;;;6.38;;
57085;SDS011;42964;42.910;23.792;2023-09-18T13:35:10;7.43;;;5.72;;
57085;SDS011;42964;42.910;23.792;2023-09-18T13:40:12;8.70;;;6.18;;
57085;SDS011;42964;42.910;23.792;2023-09-18T13:45:11;8.10;;;6.40;;
57085;SDS011;42964;42.910;23.792;2023-09-18T13:50:10;9.55;;;6.15;;
57085;SDS011;42964;42.910;23.792;2023-09-18T13:55:11;12.70;;;6.72;;
57085;SDS011;42964;42.910;23.792;2023-09-18T14:00:10;7.40;;;6.13;;
57085;SDS011;42964;42.910;23.792;2023-09-18T14:05:10;9.43;;;6.28;;
57085;SDS011;42964;42.910;23.792;2023-09-18T14:10:10;8.45;;;5.13;;
57085;SDS011;42964;42.910;23.792;2023-09-18T14:15:09;8.13;;;6.00;;
57085;SDS011;42964;42.910;23.792;2023-09-18T14:20:09;11.30;;;5.47;;
57085;SDS011;42964;42.910;23.792;2023-09-18T14:25:09;8.55;;;5.60;;
57085;SDS011;42964;42.910;23.792;2023-09-18T14:30:08;10.07;;;5.78;;
57085;SDS011;42964;42.910;23.792;2023-09-18T14:35:07;10.02;;;6.22;;
57085;SDS011;42964;42.910;23.792;2023-09-18T14:40:06;8.45;;;5.47;;
57085;SDS011;42964;42.910;23.792;2023-09-18T14:45:10;12.85;;;6.07;;
57085;SDS011;42964;42.910;23.792;2023-09-18T14:50:11;8.80;;;5.80;;
57085;SDS011;42964;42.910;23.792;2023-09-18T14:55:10;7.57;;;5.40;;
57085;SDS011;42964;42.910;23.792;2023-09-18T15:00:09;9.70;;;5.75;;
57085;SDS011;42964;42.910;23.792;2023-09-18T15:05:12;9.45;;;5.78;;
57085;SDS011;42964;42.910;23.792;2023-09-18T15:10:14;13.02;;;5.60;;
57085;SDS011;42964;42.910;23.792;2023-09-18T15:15:13;7.72;;;5.35;;
57085;SDS011;42964;42.910;23.792;2023-09-18T15:20:13;7.10;;;5.05;;
57085;SDS011;42964;42.910;23.792;2023-09-18T15:25:12;8.07;;;5.25;;
57085;SDS011;42964;42.910;23.792;2023-09-18T15:30:11;9.70;;;5.90;;
57085;SDS011;42964;42.910;23.792;2023-09-18T15:35:10;10.88;;;5.35;;
57085;SDS011;42964;42.910;23.792;2023-09-18T15:40:09;8.30;;;5.10;;
57085;SDS011;42964;42.910;23.792;2023-09-18T15:45:09;9.10;;;5.57;;
57085;SDS011;42964;42.910;23.792;2023-09-18T15:50:10;7.75;;;4.95;;
57085;SDS011;42964;42.910;23.792;2023-09-18T15:55:10;11.38;;;5.72;;
57085;SDS011;42964;42.910;23.792;2023-09-18T16:00:09;8.40;;;5.40;;
57085;SDS011;42964;42.910;23.792;2023-09-18T16:05:10;13.10;;;6.80;;
57085;SDS011;42964;42.910;23.792;2023-09-18T16:10:10;14.52;;;7.20;;
57085;SDS011;42964;42.910;23.792;2023-09-18T16:15:09;15.80;;;7.55;;
57085;SDS011;42964;42.910;23.792;2023-09-18T16:20:08;10.27;;;6.85;;
57085;SDS011;42964;42.910;23.792;2023-09-18T16:25:08;10.35;;;6.90;;
57085;SDS011;42964;42.910;23.792;2023-09-18T16:30:08;11.80;;;6.82;;
57085;SDS011;42964;42.910;23.792;2023-09-18T16:35:09;10.40;;;6.93;;
57085;SDS011;42964;42.910;23.792;2023-09-18T16:40:08;13.43;;;7.63;;
57085;SDS011;42964;42.910;23.792;2023-09-18T16:45:09;12.15;;;7.78;;
57085;SDS011;42964;42.910;23.792;2023-09-18T16:50:09;10.57;;;7.20;;
57085;SDS011;42964;42.910;23.792;2023-09-18T16:55:08;14.25;;;8.20;;
57085;SDS011;42964;42.910;23.792;2023-09-18T17:00:07;13.85;;;7.78;;
57085;SDS011;42964;42.910;23.792;2023-09-18T17:05:06;12.48;;;7.28;;
57085;SDS011;42964;42.910;23.792;2023-09-18T17:10:06;12.23;;;7.20;;
57085;SDS011;42964;42.910;23.792;2023-09-18T17:15:05;15.35;;;9.10;;
57085;SDS011;42964;42.910;23.792;2023-09-18T17:20:06;18.98;;;10.48;;
57085;SDS011;42964;42.910;23.792;2023-09-18T17:25:06;14.32;;;8.20;;
57085;SDS011;42964;42.910;23.792;2023-09-18T17:30:05;12.52;;;7.30;;
57085;SDS011;42964;42.910;23.792;2023-09-18T17:35:05;12.35;;;7.15;;
57085;SDS011;42964;42.910;23.792;2023-09-18T17:40:05;11.23;;;7.03;;
57085;SDS011;42964;42.910;23.792;2023-09-18T17:45:04;9.95;;;6.72;;
57085;SDS011;42964;42.910;23.792;2023-09-18T17:50:04;10.60;;;7.32;;
57085;SDS011;42964;42.910;23.792;2023-09-18T17:55:04;14.30;;;6.47;;
57085;SDS011;42964;42.910;23.792;2023-09-18T18:00:07;12.27;;;7.45;;
57085;SDS011;42964;42.910;23.792;2023-09-18T18:05:15;14.02;;;7.38;;
57085;SDS011;42964;42.910;23.792;2023-09-18T18:10:14;11.40;;;7.30;;
57085;SDS011;42964;42.910;23.792;2023-09-18T18:15:13;12.32;;;7.25;;
57085;SDS011;42964;42.910;23.792;2023-09-18T18:20:13;16.73;;;10.30;;
57085;SDS011;42964;42.910;23.792;2023-09-18T18:25:14;19.73;;;11.48;;
57085;SDS011;42964;42.910;23.792;2023-09-18T18:30:14;15.38;;;8.65;;
57085;SDS011;42964;42.910;23.792;2023-09-18T18:35:15;12.38;;;8.30;;
57085;SDS011;42964;42.910;23.792;2023-09-18T18:40:19;16.17;;;9.07;;
57085;SDS011;42964;42.910;23.792;2023-09-18T18:45:20;14.10;;;8.48;;
57085;SDS011;42964;42.910;23.792;2023-09-18T18:50:21;13.55;;;8.80;;
57085;SDS011;42964;42.910;23.792;2023-09-18T18:55:20;14.32;;;9.25;;
57085;SDS011;42964;42.910;23.792;2023-09-18T19:00:21;11.02;;;7.57;;
57085;SDS011;42964;42.910;23.792;2023-09-18T19:05:20;13.02;;;8.10;;
57085;SDS011;42964;42.910;23.792;2023-09-18T19:10:22;11.95;;;8.07;;
57085;SDS011;42964;42.910;23.792;2023-09-18T19:15:22;13.60;;;7.68;;
57085;SDS011;42964;42.910;23.792;2023-09-18T19:20:23;13.07;;;7.82;;
57085;SDS011;42964;42.910;23.792;2023-09-18T19:25:22;13.13;;;7.85;;
57085;SDS011;42964;42.910;23.792;2023-09-18T19:30:21;13.07;;;7.60;;
57085;SDS011;42964;42.910;23.792;2023-09-18T19:35:20;14.30;;;7.85;;
57085;SDS011;42964;42.910;23.792;2023-09-18T19:40:19;13.48;;;9.20;;
57085;SDS011;42964;42.910;23.792;2023-09-18T19:45:18;11.20;;;8.43;;
57085;SDS011;42964;42.910;23.792;2023-09-18T19:50:17;15.70;;;8.70;;
57085;SDS011;42964;42.910;23.792;2023-09-18T19:55:16;15.77;;;8.70;;
57085;SDS011;42964;42.910;23.792;2023-09-18T20:00:16;14.95;;;9.30;;
57085;SDS011;42964;42.910;23.792;2023-09-18T20:05:15;17.30;;;9.50;;
57085;SDS011;42964;42.910;23.792;2023-09-18T20:10:14;12.23;;;9.82;;
57085;SDS011;42964;42.910;23.792;2023-09-18T20:15:16;13.55;;;9.18;;
57085;SDS011;42964;42.910;23.792;2023-09-18T20:20:17;16.00;;;9.60;;
57085;SDS011;42964;42.910;23.792;2023-09-18T20:25:16;16.27;;;9.95;;
57085;SDS011;42964;42.910;23.792;2023-09-18T20:35:13;15.40;;;10.67;;
57085;SDS011;42964;42.910;23.792;2023-09-18T20:40:13;19.08;;;10.18;;
57085;SDS011;42964;42.910;23.792;2023-09-18T20:45:12;16.90;;;9.57;;
57085;SDS011;42964;42.910;23.792;2023-09-18T20:50:12;15.73;;;9.77;;
57085;SDS011;42964;42.910;23.792;2023-09-18T20:55:11;14.13;;;10.70;;
57085;SDS011;42964;42.910;23.792;2023-09-18T21:00:11;16.17;;;10.23;;
57085;SDS011;42964;42.910;23.792;2023-09-18T21:05:13;14.48;;;10.98;;
57085;SDS011;42964;42.910;23.792;2023-09-18T21:10:15;17.55;;;11.30;;
57085;SDS011;42964;42.910;23.792;2023-09-18T21:15:14;14.43;;;10.55;;
57085;SDS011;42964;42.910;23.792;2023-09-18T21:20:13;16.15;;;11.05;;
57085;SDS011;42964;42.910;23.792;2023-09-18T21:30:10;17.08;;;11.35;;
57085;SDS011;42964;42.910;23.792;2023-09-18T21:35:09;16.42;;;10.90;;
57085;SDS011;42964;42.910;23.792;2023-09-18T21:40:09;19.40;;;11.00;;
57085;SDS011;42964;42.910;23.792;2023-09-18T21:45:08;21.00;;;13.25;;
57085;SDS011;42964;42.910;23.792;2023-09-18T21:50:08;20.27;;;14.13;;
57085;SDS011;42964;42.910;23.792;2023-09-18T21:55:07;18.75;;;11.23;;
57085;SDS011;42964;42.910;23.792;2023-09-18T22:00:07;14.95;;;10.73;;
57085;SDS011;42964;42.910;23.792;2023-09-18T22:05:26;18.48;;;9.23;;
57085;SDS011;42964;42.910;23.792;2023-09-18T22:15:24;14.82;;;9.40;;
57085;SDS011;42964;42.910;23.792;2023-09-18T22:20:23;17.67;;;9.63;;
57085;SDS011;42964;42.910;23.792;2023-09-18T22:30:21;16.30;;;9.70;;
57085;SDS011;42964;42.910;23.792;2023-09-18T22:56:31;12.23;;;7.88;;
57085;SDS011;42964;42.910;23.792;2023-09-18T23:01:31;11.30;;;8.30;;
57085;SDS011;42964;42.910;23.792;2023-09-18T23:06:30;10.40;;;7.70;;
57085;SDS011;42964;42.910;23.792;2023-09-18T23:11:32;13.15;;;8.50;;
57085;SDS011;42964;42.910;23.792;2023-09-18T23:16:33;11.13;;;8.35;;
57085;SDS011;42964;42.910;23.792;2023-09-18T23:21:32;13.45;;;9.35;;
57085;SDS011;42964;42.910;23.792;2023-09-18T23:31:30;13.13;;;9.00;;
57085;SDS011;42964;42.910;23.792;2023-09-18T23:41:28;16.40;;;9.77;;
57085;SDS011;42964;42.910;23.792;2023-09-18T23:51:26;13.88;;;9.45;;
57085;SDS011;42964;42.910;23.792;2023-09-18T23:56:25;12.85;;;8.93;;
